Time;durP1;ratioP1;P1;durP2;ratioP2;P2;SDS_P1;SDS_P2;PMS_P1;PMS_P2;Temp;Humidity;BMP_temperature;BMP_pressure;BME280_temperature;BME280_humidity;BME280_pressure;Samples;Min_cycle;Max_cycle;Signal;HPM_P1;HPM_P2
2022/08/13 00:02:16;;;;;;;;;;;18.10;99.90;;;;;;5002880;28;19967;-73
2022/08/13 00:05:18;;;;;;;;;;;18.00;99.90;;;;;;5019147;28;20024;-73
2022/08/13 00:07:35;;;;;;;;;;;18.00;99.90;;;;;;4999155;28;19929;-73
2022/08/13 00:10:02;;;;;;;;;;;17.90;99.90;;;;;;5015294;28;19913;-72
2022/08/13 00:15:20;;;;;;;;;;;17.90;99.90;;;;;;5020885;28;19936;-73
2022/08/13 00:17:49;;;;;;;;;;;17.90;99.90;;;;;;5019451;28;19917;-72
2022/08/13 00:20:17;;;;;;;;;;;17.90;99.90;;;;;;5019769;28;20393;-72
2022/08/13 00:22:43;;;;;;;;;;;17.80;99.90;;;;;;5023518;28;19913;-73
2022/08/13 00:25:10;;;;;;;;;;;17.80;99.90;;;;;;5022948;28;20044;-72
2022/08/13 00:27:36;;;;;;;;;;;17.70;99.90;;;;;;5019474;28;19924;-73
2022/08/13 00:30:05;;;;;;;;;;;17.60;99.90;;;;;;5007756;28;19949;-72
2022/08/13 00:32:30;;;;;;;;;;;17.60;99.90;;;;;;5017445;28;19932;-73
2022/08/13 00:34:57;;;;;;;;;;;17.50;99.90;;;;;;5023303;28;19971;-72
2022/08/13 00:37:25;;;;;;;;;;;17.40;99.90;;;;;;5023785;28;19940;-73
2022/08/13 00:39:50;;;;;;;;;;;17.40;99.90;;;;;;5022374;28;19912;-72
2022/08/13 00:42:20;;;;;;;;;;;17.40;99.90;;;;;;5010336;28;20573;-73
2022/08/13 00:44:46;;;;;;;;;;;17.40;99.90;;;;;;5016068;28;20023;-72
2022/08/13 00:49:55;;;;;;;;;;;17.30;99.90;;;;;;5022906;28;19960;-73
2022/08/13 00:52:21;;;;;;;;;;;17.30;99.90;;;;;;5023577;28;19983;-73
2022/08/13 00:54:48;;;;;;;;;;;17.30;99.90;;;;;;5009904;28;20441;-73
2022/08/13 00:57:14;;;;;;;;;;;17.20;99.90;;;;;;5018918;28;19998;-72
2022/08/13 00:59:39;;;;;;;;;;;17.20;99.90;;;;;;5022603;28;19917;-72
2022/08/13 01:02:05;;;;;;;;;;;17.10;99.90;;;;;;5016373;28;19968;-72
2022/08/13 01:04:32;;;;;;;;;;;17.10;99.90;;;;;;5008922;28;20757;-72
2022/08/13 01:06:58;;;;;;;;;;;17.10;99.90;;;;;;5008674;28;19918;-73
2022/08/13 01:09:29;;;;;;;;;;;17.10;99.90;;;;;;5003900;28;19965;-72
2022/08/13 01:11:57;;;;;;;;;;;17.00;99.90;;;;;;5012774;28;20458;-74
2022/08/13 01:14:24;;;;;;;;;;;17.00;99.90;;;;;;5021632;28;19917;-72
2022/08/13 01:16:52;;;;;;;;;;;16.90;99.90;;;;;;5020862;28;19924;-73
2022/08/13 01:19:19;;;;;;;;;;;16.90;99.90;;;;;;5016265;28;19917;-72
2022/08/13 01:21:44;;;;;;;;;;;16.90;99.90;;;;;;4985985;28;19932;-72
2022/08/13 01:24:11;;;;;;;;;;;16.80;99.90;;;;;;5009725;28;19917;-72
2022/08/13 01:26:39;;;;;;;;;;;16.80;99.90;;;;;;5020895;28;19917;-73
2022/08/13 01:29:06;;;;;;;;;;;16.80;99.90;;;;;;5020919;28;19921;-73
2022/08/13 01:31:33;;;;;;;;;;;16.70;99.90;;;;;;5020700;28;20311;-73
2022/08/13 01:33:59;;;;;;;;;;;16.70;99.90;;;;;;5010851;28;19979;-72
2022/08/13 01:36:25;;;;;;;;;;;16.70;99.90;;;;;;5004245;28;20058;-73
2022/08/13 01:38:51;;;;;;;;;;;16.60;99.90;;;;;;5015930;28;20826;-73
2022/08/13 01:41:16;;;;;;;;;;;16.60;99.90;;;;;;5004812;28;19953;-72
2022/08/13 01:43:43;;;;;;;;;;;16.60;99.90;;;;;;5020270;28;19999;-73
2022/08/13 01:46:09;;;;;;;;;;;16.60;99.90;;;;;;5015316;28;19921;-72
2022/08/13 01:51:21;;;;;;;;;;;16.50;99.90;;;;;;5016699;28;19966;-73
2022/08/13 01:53:49;;;;;;;;;;;16.40;99.90;;;;;;5020031;28;19917;-72
2022/08/13 01:56:16;;;;;;;;;;;16.30;99.90;;;;;;5013715;28;19917;-72
2022/08/13 01:58:42;;;;;;;;;;;16.30;99.90;;;;;;5018544;28;19917;-73
2022/08/13 02:01:08;;;;;;;;;;;16.30;99.90;;;;;;5019313;28;20028;-73
2022/08/13 02:03:33;;;;;;;;;;;16.30;99.90;;;;;;5016799;28;19919;-72
2022/08/13 02:06:00;;;;;;;;;;;16.20;99.90;;;;;;4998719;28;19932;-73
2022/08/13 02:08:29;;;;;;;;;;;16.20;99.90;;;;;;5018101;28;20458;-72
2022/08/13 02:10:56;;;;;;;;;;;16.20;99.90;;;;;;5005778;28;19921;-72
2022/08/13 02:13:24;;;;;;;;;;;16.20;99.90;;;;;;5001658;28;20015;-72
2022/08/13 02:15:50;;;;;;;;;;;16.20;99.90;;;;;;5014417;28;20418;-72
2022/08/13 02:18:19;;;;;;;;;;;16.20;99.90;;;;;;5003780;28;20293;-72
2022/08/13 02:20:49;;;;;;;;;;;16.20;99.90;;;;;;5020195;28;20463;-72
2022/08/13 02:23:18;;;;;;;;;;;16.20;99.90;;;;;;5019975;28;20800;-72
2022/08/13 02:25:45;;;;;;;;;;;16.20;99.90;;;;;;5020388;28;19924;-72
2022/08/13 02:28:11;;;;;;;;;;;16.10;99.90;;;;;;5018832;28;19960;-73
2022/08/13 02:30:37;;;;;;;;;;;16.10;99.90;;;;;;5019930;28;19997;-72
2022/08/13 02:33:05;;;;;;;;;;;16.00;99.90;;;;;;5020132;28;19924;-73
2022/08/13 02:35:31;;;;;;;;;;;16.00;99.90;;;;;;5021252;28;20284;-72
2022/08/13 02:37:57;;;;;;;;;;;16.00;99.90;;;;;;5020647;28;20372;-72
2022/08/13 02:43:06;;;;;;;;;;;16.00;99.90;;;;;;5020353;28;20387;-72
2022/08/13 02:45:32;;;;;;;;;;;16.00;99.90;;;;;;5019147;28;19925;-72
2022/08/13 02:47:58;;;;;;;;;;;15.90;99.90;;;;;;5012230;28;19921;-72
2022/08/13 02:50:27;;;;;;;;;;;16.00;99.90;;;;;;5015496;28;19916;-72
2022/08/13 02:52:53;;;;;;;;;;;16.00;99.90;;;;;;5016114;28;19965;-73
2022/08/13 02:55:20;;;;;;;;;;;16.00;99.90;;;;;;5013616;28;19928;-72
2022/08/13 02:57:49;;;;;;;;;;;16.00;99.90;;;;;;5020847;28;19921;-72
2022/08/13 03:00:16;;;;;;;;;;;16.00;99.90;;;;;;5020921;28;19924;-72
2022/08/13 03:02:43;;;;;;;;;;;15.90;99.90;;;;;;5020552;28;20390;-72
2022/08/13 03:05:09;;;;;;;;;;;15.90;99.90;;;;;;5020144;28;20444;-72
2022/08/13 03:07:37;;;;;;;;;;;15.80;99.90;;;;;;5021403;28;20000;-72
2022/08/13 03:10:03;;;;;;;;;;;15.80;99.90;;;;;;5009812;28;19917;-72
2022/08/13 03:12:30;;;;;;;;;;;15.80;99.90;;;;;;5013874;28;19944;-72
2022/08/13 03:14:57;;;;;;;;;;;15.70;99.90;;;;;;5020062;28;20717;-72
2022/08/13 03:17:23;;;;;;;;;;;15.70;99.90;;;;;;5020219;28;19913;-72
2022/08/13 03:19:48;;;;;;;;;;;15.70;99.90;;;;;;5020876;28;19914;-73
2022/08/13 03:22:14;;;;;;;;;;;15.70;99.90;;;;;;5002669;28;19913;-73
2022/08/13 03:24:39;;;;;;;;;;;15.70;99.90;;;;;;5020890;28;19948;-72
2022/08/13 03:27:06;;;;;;;;;;;15.70;99.90;;;;;;5020499;28;19917;-72
2022/08/13 03:29:31;;;;;;;;;;;15.60;99.90;;;;;;5021110;28;20254;-73
2022/08/13 03:31:57;;;;;;;;;;;15.60;99.90;;;;;;5003646;28;19924;-72
2022/08/13 03:34:23;;;;;;;;;;;15.70;99.90;;;;;;5007650;28;19917;-72
2022/08/13 03:36:49;;;;;;;;;;;15.60;99.90;;;;;;5020036;28;20455;-72
2022/08/13 03:39:14;;;;;;;;;;;15.70;99.90;;;;;;5020345;28;19921;-72
2022/08/13 03:41:40;;;;;;;;;;;15.60;99.90;;;;;;5001918;28;19913;-71
2022/08/13 03:44:05;;;;;;;;;;;15.60;99.90;;;;;;5018638;28;19921;-71
2022/08/13 03:46:32;;;;;;;;;;;15.60;99.90;;;;;;5018910;28;20359;-72
2022/08/13 03:48:58;;;;;;;;;;;15.60;99.90;;;;;;5018457;28;19917;-73
2022/08/13 03:51:24;;;;;;;;;;;15.60;99.90;;;;;;5017110;28;19917;-72
2022/08/13 03:53:50;;;;;;;;;;;15.50;99.90;;;;;;5019890;28;19917;-72
2022/08/13 03:56:18;;;;;;;;;;;15.50;99.90;;;;;;5002353;28;19913;-73
2022/08/13 03:58:44;;;;;;;;;;;15.50;99.90;;;;;;5024495;28;20312;-72
2022/08/13 04:01:10;;;;;;;;;;;15.50;99.90;;;;;;5022850;28;19913;-72
2022/08/13 04:03:37;;;;;;;;;;;15.40;99.90;;;;;;5021391;28;20379;-72
2022/08/13 04:06:29;;;;;;;;;;;15.30;99.90;;;;;;5023056;28;19948;-72
2022/08/13 04:08:59;;;;;;;;;;;15.20;99.90;;;;;;5002551;28;20019;-72
2022/08/13 04:11:25;;;;;;;;;;;15.10;99.90;;;;;;5013170;28;20394;-72
2022/08/13 04:13:51;;;;;;;;;;;15.10;99.90;;;;;;5024278;28;19924;-72
2022/08/13 04:16:18;;;;;;;;;;;15.10;99.90;;;;;;5022728;28;19913;-72
2022/08/13 04:18:45;;;;;;;;;;;15.10;99.90;;;;;;5021436;28;19917;-72
2022/08/13 04:21:14;;;;;;;;;;;15.10;99.90;;;;;;5027556;28;19917;-73
2022/08/13 04:23:41;;;;;;;;;;;15.20;99.90;;;;;;5019345;28;19925;-72
2022/08/13 04:26:08;;;;;;;;;;;15.30;99.90;;;;;;5014427;28;19974;-72
2022/08/13 04:28:34;;;;;;;;;;;15.30;99.90;;;;;;5024511;28;19914;-73
2022/08/13 04:31:00;;;;;;;;;;;15.40;99.90;;;;;;5022486;28;19924;-72
2022/08/13 04:33:27;;;;;;;;;;;15.40;99.90;;;;;;5019470;28;20300;-72
2022/08/13 04:35:53;;;;;;;;;;;15.30;99.90;;;;;;5018376;28;20025;-72
2022/08/13 04:38:18;;;;;;;;;;;15.30;99.90;;;;;;5004380;28;20402;-72
2022/08/13 04:40:44;;;;;;;;;;;15.10;99.90;;;;;;5002877;28;19914;-72
2022/08/13 04:43:11;;;;;;;;;;;15.00;99.90;;;;;;5009825;28;19943;-73
2022/08/13 04:45:37;;;;;;;;;;;14.90;99.90;;;;;;4996719;28;20285;-73
2022/08/13 04:48:12;;;;;;;;;;;14.90;99.90;;;;;;5020263;28;19924;-72
2022/08/13 04:50:38;;;;;;;;;;;14.80;99.90;;;;;;5005882;28;20358;-72
2022/08/13 04:53:06;;;;;;;;;;;14.80;99.90;;;;;;5020795;28;19956;-72
2022/08/13 04:55:32;;;;;;;;;;;14.80;99.90;;;;;;5007356;28;19917;-72
2022/08/13 04:57:57;;;;;;;;;;;14.70;99.90;;;;;;5014127;28;19924;-72
2022/08/13 05:00:24;;;;;;;;;;;14.80;99.90;;;;;;5016493;28;19913;-72
2022/08/13 05:02:52;;;;;;;;;;;14.80;99.90;;;;;;5020369;28;19956;-72
2022/08/13 05:05:18;;;;;;;;;;;14.90;99.90;;;;;;5020912;28;20421;-73
2022/08/13 05:07:47;;;;;;;;;;;14.90;99.90;;;;;;5021874;28;19992;-72
2022/08/13 05:10:13;;;;;;;;;;;14.90;99.90;;;;;;5021450;28;19964;-72
2022/08/13 05:12:38;;;;;;;;;;;14.90;99.90;;;;;;5019441;28;20288;-72
2022/08/13 05:15:06;;;;;;;;;;;14.90;99.90;;;;;;5021588;28;19964;-72
2022/08/13 05:17:32;;;;;;;;;;;14.90;99.90;;;;;;5027982;28;19964;-72
2022/08/13 05:19:58;;;;;;;;;;;15.00;99.90;;;;;;5013616;28;19972;-72
2022/08/13 05:22:24;;;;;;;;;;;15.10;99.90;;;;;;5010316;28;19917;-72
2022/08/13 05:24:50;;;;;;;;;;;15.10;99.90;;;;;;5019599;28;19999;-72
2022/08/13 05:27:16;;;;;;;;;;;15.20;99.90;;;;;;5023038;28;19917;-72
2022/08/13 05:29:43;;;;;;;;;;;15.20;99.90;;;;;;5021270;28;19928;-72
2022/08/13 05:32:10;;;;;;;;;;;15.20;99.90;;;;;;5016021;28;19918;-72
2022/08/13 05:34:37;;;;;;;;;;;15.30;99.90;;;;;;5016226;28;19921;-72
2022/08/13 05:37:03;;;;;;;;;;;15.40;99.90;;;;;;5008292;28;19917;-72
2022/08/13 05:39:29;;;;;;;;;;;15.40;99.90;;;;;;5009179;28;20420;-72
2022/08/13 05:41:55;;;;;;;;;;;15.40;99.90;;;;;;5005222;28;19909;-72
2022/08/13 05:44:21;;;;;;;;;;;15.50;99.90;;;;;;5016184;28;20120;-72
2022/08/13 05:46:50;;;;;;;;;;;15.60;99.90;;;;;;5018996;28;19918;-72
2022/08/13 05:49:16;;;;;;;;;;;15.60;99.90;;;;;;5020397;28;20367;-72
2022/08/13 05:51:45;;;;;;;;;;;15.70;99.90;;;;;;5018299;28;19925;-73
2022/08/13 05:54:11;;;;;;;;;;;15.80;99.90;;;;;;5019897;28;19940;-72
2022/08/13 05:56:37;;;;;;;;;;;16.00;99.90;;;;;;5020805;28;20291;-72
2022/08/13 05:59:03;;;;;;;;;;;16.10;99.90;;;;;;5016812;28;19917;-71
2022/08/13 06:04:14;;;;;;;;;;;16.40;99.90;;;;;;5017894;28;19923;-72
2022/08/13 06:06:40;;;;;;;;;;;16.50;99.90;;;;;;5021179;28;19924;-72
2022/08/13 06:09:07;;;;;;;;;;;16.60;99.90;;;;;;5008136;28;20376;-72
2022/08/13 06:11:33;;;;;;;;;;;16.60;99.90;;;;;;5002837;28;20324;-71
2022/08/13 06:13:58;;;;;;;;;;;16.60;99.90;;;;;;5021528;28;20264;-73
2022/08/13 06:16:24;;;;;;;;;;;16.60;99.90;;;;;;5008881;28;19918;-72
2022/08/13 06:18:50;;;;;;;;;;;16.60;99.90;;;;;;5008183;28;20004;-73
2022/08/13 06:21:17;;;;;;;;;;;16.60;99.90;;;;;;5022103;28;20310;-72
2022/08/13 06:23:45;;;;;;;;;;;16.70;99.90;;;;;;5016963;28;19913;-72
2022/08/13 06:26:14;;;;;;;;;;;16.80;99.90;;;;;;5015206;28;19950;-72
2022/08/13 06:28:40;;;;;;;;;;;17.00;99.90;;;;;;5017665;28;19924;-71
2022/08/13 06:31:07;;;;;;;;;;;17.00;99.90;;;;;;5015178;28;20016;-72
2022/08/13 06:33:34;;;;;;;;;;;17.20;99.90;;;;;;5014318;28;19924;-72
2022/08/13 06:36:08;;;;;;;;;;;17.30;99.90;;;;;;5019021;28;19929;-72
2022/08/13 06:38:35;;;;;;;;;;;17.50;99.90;;;;;;5019721;28;19921;-72
2022/08/13 06:41:01;;;;;;;;;;;17.60;99.90;;;;;;5016554;28;19918;-72
2022/08/13 06:43:28;;;;;;;;;;;17.70;99.90;;;;;;5022887;28;20004;-72
2022/08/13 06:45:55;;;;;;;;;;;17.80;99.90;;;;;;5027404;28;19925;-71
2022/08/13 06:48:21;;;;;;;;;;;17.90;99.90;;;;;;5016978;28;19938;-71
2022/08/13 06:50:47;;;;;;;;;;;18.00;99.90;;;;;;5023277;28;19917;-71
2022/08/13 06:53:13;;;;;;;;;;;18.30;99.90;;;;;;5015595;28;19917;-71
2022/08/13 06:55:39;;;;;;;;;;;18.40;99.90;;;;;;5007089;28;19932;-72
2022/08/13 06:58:09;;;;;;;;;;;18.50;99.90;;;;;;5014391;28;19917;-71
2022/08/13 07:00:36;;;;;;;;;;;18.60;99.90;;;;;;5011482;28;20406;-71
2022/08/13 07:03:02;;;;;;;;;;;18.70;99.90;;;;;;5010909;28;19948;-71
2022/08/13 07:05:41;;;;;;;;;;;18.90;99.90;;;;;;5009961;28;20264;-71
2022/08/13 07:08:11;;;;;;;;;;;19.10;99.90;;;;;;5015067;28;19946;-71
2022/08/13 07:10:43;;;;;;;;;;;19.20;99.90;;;;;;5018160;28;20363;-71
2022/08/13 07:13:09;;;;;;;;;;;19.40;99.90;;;;;;5018487;28;19917;-71
2022/08/13 07:15:36;;;;;;;;;;;19.50;99.90;;;;;;5016039;28;19929;-70
2022/08/13 07:18:03;;;;;;;;;;;19.60;99.90;;;;;;5013701;28;19917;-70
2022/08/13 07:20:28;;;;;;;;;;;19.80;99.90;;;;;;5013219;28;20174;-71
2022/08/13 07:22:55;;;;;;;;;;;19.90;99.90;;;;;;5007652;28;19928;-70
2022/08/13 07:25:25;;;;;;;;;;;20.10;99.90;;;;;;5006027;28;19964;-71
2022/08/13 07:27:51;;;;;;;;;;;20.20;99.90;;;;;;5019209;28;19912;-73
2022/08/13 07:30:17;;;;;;;;;;;20.50;99.90;;;;;;5017371;28;20725;-70
2022/08/13 07:32:43;;;;;;;;;;;20.60;99.90;;;;;;5020878;28;20004;-71
2022/08/13 07:35:09;;;;;;;;;;;20.80;99.90;;;;;;5013216;28;19925;-71
2022/08/13 07:37:36;;;;;;;;;;;21.00;99.90;;;;;;5013677;28;19917;-72
2022/08/13 07:40:03;;;;;;;;;;;21.20;99.90;;;;;;5016378;28;19921;-71
2022/08/13 07:42:29;;;;;;;;;;;21.50;99.90;;;;;;5011820;28;19927;-72
2022/08/13 07:44:54;;;;;;;;;;;21.80;99.90;;;;;;5009416;28;19925;-71
2022/08/13 07:47:22;;;;;;;;;;;22.10;99.90;;;;;;5017048;28;20024;-72
2022/08/13 07:49:48;;;;;;;;;;;22.50;99.90;;;;;;5015502;28;20006;-71
2022/08/13 07:52:14;;;;;;;;;;;24.50;99.90;;;;;;5011493;28;19961;-71
2022/08/13 07:54:41;;;;;;;;;;;27.00;99.90;;;;;;5012420;28;20400;-72
2022/08/13 07:57:08;;;;;;;;;;;31.00;99.50;;;;;;5012387;28;19961;-72
2022/08/13 07:59:34;;;;;;;5.80;4.07;;;33.80;89.50;;;;;;5018371;28;19932;-75
2022/08/13 08:01:59;;;;;;;7.65;3.97;;;36.20;73.50;;;;;;5022019;28;20017;-72
2022/08/13 08:04:25;;;;;;;4.32;3.00;;;38.00;62.60;;;;;;5016406;28;20115;-70
2022/08/13 08:06:51;;;;;;;6.82;3.47;;;39.20;55.90;;;;;;5024058;28;20135;-71
2022/08/13 08:09:22;;;;;;;6.22;3.58;;;40.50;49.60;;;;;;5023362;28;20107;-70
2022/08/13 08:14:37;;;;;;;8.48;3.47;;;41.70;44.00;;;;;;5003647;28;20044;-72
2022/08/13 08:17:05;;;;;;;6.50;3.13;;;42.20;42.50;;;;;;5027557;28;20739;-70
2022/08/13 08:19:31;;;;;;;8.77;3.17;;;41.70;43.50;;;;;;5005964;28;20026;-69
2022/08/13 08:21:58;;;;;;;7.57;3.92;;;42.20;40.90;;;;;;5017750;28;20433;-69
2022/08/13 08:24:26;;;;;;;6.75;2.65;;;42.20;39.80;;;;;;5015841;28;20087;-68
2022/08/13 08:26:55;;;;;;;7.72;3.67;;;42.60;39.60;;;;;;5023631;28;20053;-69
2022/08/13 08:29:21;;;;;;;3.80;2.95;;;42.80;39.00;;;;;;5021081;28;20025;-72
2022/08/13 08:31:50;;;;;;;6.45;3.53;;;42.20;38.40;;;;;;5015338;28;20053;-69
2022/08/13 08:34:18;;;;;;;3.70;2.47;;;42.70;38.20;;;;;;5006317;28;20105;-69
2022/08/13 08:36:44;;;;;;;6.00;2.90;;;42.30;38.70;;;;;;5011186;28;20041;-69
2022/08/13 08:44:44;;;;;;;6.00;3.10;;;43.80;37.60;;;;;;5011757;28;20049;-69
2022/08/13 08:47:10;;;;;;;10.15;3.05;;;43.60;35.30;;;;;;5013355;28;20029;-69
2022/08/13 08:49:38;;;;;;;;;;;43.70;35.70;;;;;;5014551;28;20445;-69
2022/08/13 08:52:04;;;;;;;;;;;43.20;35.40;;;;;;5014676;28;20027;-69
2022/08/13 08:54:31;;;;;;;;;;;42.90;36.50;;;;;;5021193;28;19972;-69
2022/08/13 08:56:57;;;;;;;;;;;43.10;36.80;;;;;;5009382;28;19917;-69
2022/08/13 08:59:27;;;;;;;;;;;42.60;36.20;;;;;;5004136;28;19914;-69
2022/08/13 09:01:55;;;;;;;;;;;42.40;36.20;;;;;;4664246;28;9999943;-69
2022/08/13 09:04:22;;;;;;;;;;;42.30;35.70;;;;;;5017137;28;19912;-69
2022/08/13 09:06:52;;;;;;;;;;;42.30;35.40;;;;;;4991668;28;19941;-69
2022/08/13 09:09:17;;;;;;;;;;;42.80;35.60;;;;;;5003993;28;19913;-69
2022/08/13 09:11:44;;;;;;;;;;;42.90;34.80;;;;;;5019154;28;19913;-69
2022/08/13 09:14:10;;;;;;;;;;;42.50;36.50;;;;;;5013202;28;19912;-78
2022/08/13 09:16:39;;;;;;;;;;;42.40;34.40;;;;;;5008015;28;19967;-69
2022/08/13 09:19:06;;;;;;;;;;;42.70;35.60;;;;;;5016317;28;19913;-70
2022/08/13 09:21:32;;;;;;;;;;;42.60;33.80;;;;;;5016424;28;19924;-72
2022/08/13 09:23:58;;;;;;;;;;;41.70;34.20;;;;;;5017717;28;19909;-71
2022/08/13 09:26:23;;;;;;;;;;;41.10;36.80;;;;;;5012590;28;19937;-70
2022/08/13 09:28:55;;;;;;;;;;;41.50;35.20;;;;;;5016519;28;20315;-70
2022/08/13 09:31:21;;;;;;;;;;;41.30;37.20;;;;;;5017241;28;19963;-69
2022/08/13 09:33:46;;;;;;;;;;;41.70;34.30;;;;;;5006553;28;19944;-70
2022/08/13 09:36:12;;;;;;;;;;;41.80;34.00;;;;;;5003909;28;20045;-70
2022/08/13 09:38:38;;;;;;;;;;;41.70;33.90;;;;;;4989578;28;22283;-72
2022/08/13 09:41:09;;;;;;;;;;;41.90;32.70;;;;;;5001464;28;20442;-72
2022/08/13 09:43:39;;;;;;;;;;;42.00;32.90;;;;;;5005584;28;20344;-73
2022/08/13 09:46:06;;;;;;;;;;;41.30;33.40;;;;;;4994190;28;19921;-70
2022/08/13 09:48:31;;;;;;;;;;;42.00;36.30;;;;;;4658852;28;9999993;-70
2022/08/13 09:50:57;;;;;;;;;;;41.90;32.50;;;;;;5005186;28;19912;-71
2022/08/13 09:53:25;;;;;;;;;;;41.50;33.50;;;;;;5010048;28;19913;-70
2022/08/13 09:55:53;;;;;;;;;;;41.90;32.10;;;;;;5019010;28;20131;-70
2022/08/13 09:58:19;;;;;;;;;;;41.70;34.40;;;;;;5018037;28;20427;-71
2022/08/13 10:00:46;;;;;;;;;;;42.00;31.30;;;;;;5004588;28;19955;-71
2022/08/13 10:03:12;;;;;;;;;;;41.50;32.50;;;;;;5010023;28;20418;-70
2022/08/13 10:05:38;;;;;;;;;;;41.20;34.30;;;;;;5004940;28;19951;-70
2022/08/13 10:08:04;;;;;;;;;;;41.40;33.70;;;;;;5004963;28;20332;-70
2022/08/13 10:10:30;;;;;;;;;;;41.90;33.20;;;;;;5011361;28;19909;-71
2022/08/13 10:12:57;;;;;;;;;;;41.20;32.80;;;;;;5010760;28;19986;-70
2022/08/13 10:15:22;;;;;;;;;;;40.90;35.20;;;;;;5006881;28;19959;-70
2022/08/13 10:17:55;;;;;;;;;;;41.00;34.00;;;;;;5006019;28;20008;-70
2022/08/13 10:20:24;;;;;;;;;;;41.00;33.30;;;;;;5003243;28;19955;-70
2022/08/13 10:22:50;;;;;;;;;;;41.00;31.30;;;;;;5001874;28;20011;-70
2022/08/13 10:25:16;;;;;;;;;;;40.90;31.80;;;;;;5000400;28;19932;-70
2022/08/13 10:27:42;;;;;;;;;;;41.30;30.50;;;;;;5002392;28;19948;-71
2022/08/13 10:30:08;;;;;;;;;;;41.70;30.80;;;;;;4998439;28;20372;-70
2022/08/13 10:32:33;;;;;;;;;;;41.40;30.90;;;;;;5003460;28;19936;-70
2022/08/13 10:35:02;;;;;;;;;;;41.60;32.50;;;;;;5010899;28;20398;-71
2022/08/13 10:37:31;;;;;;;;;;;42.20;31.90;;;;;;5008472;28;19924;-71
2022/08/13 10:39:57;;;;;;;;;;;42.20;29.40;;;;;;5003825;28;19963;-70
2022/08/13 10:42:23;;;;;;;;;;;42.20;30.00;;;;;;5006796;28;19936;-70
2022/08/13 10:44:51;;;;;;;;;;;42.20;29.80;;;;;;5016591;28;20277;-70
2022/08/13 10:47:18;;;;;;;;;;;41.90;31.80;;;;;;5008124;28;19913;-70
2022/08/13 10:49:44;;;;;;;;;;;41.00;32.30;;;;;;5010905;28;20288;-70
2022/08/13 10:52:09;;;;;;;;;;;41.40;32.50;;;;;;5011786;28;19913;-70
2022/08/13 10:54:35;;;;;;;;;;;41.40;31.60;;;;;;5004753;28;19917;-71
2022/08/13 10:57:00;;;;;;;;;;;41.40;30.10;;;;;;5009257;28;20412;-71
2022/08/13 10:59:26;;;;;;;;;;;41.30;30.60;;;;;;4996607;28;19935;-71
2022/08/13 11:01:51;;;;;;;;;;;41.30;31.60;;;;;;5006611;28;20398;-71
2022/08/13 11:04:17;;;;;;;;;;;41.40;31.60;;;;;;5011889;28;19948;-70
2022/08/13 11:06:46;;;;;;;;;;;40.90;31.40;;;;;;5017425;28;19986;-71
2022/08/13 11:09:12;;;;;;;;;;;41.30;31.10;;;;;;5022370;28;19986;-70
2022/08/13 11:11:37;;;;;;;;;;;41.10;30.00;;;;;;5010817;28;19913;-71
2022/08/13 11:14:03;;;;;;;;;;;41.30;29.70;;;;;;5012120;28;19920;-71
2022/08/13 11:19:16;;;;;;;;;;;40.70;32.70;;;;;;5008465;28;20142;-70
2022/08/13 11:21:43;;;;;;;;;;;41.00;33.20;;;;;;5002141;28;19915;-70
2022/08/13 11:24:09;;;;;;;;;;;40.80;29.00;;;;;;5009962;28;19912;-71
2022/08/13 11:26:34;;;;;;;;;;;40.50;29.60;;;;;;5010566;28;20289;-71
2022/08/13 11:29:00;;;;;;;;;;;40.50;31.10;;;;;;5014081;28;20008;-70
2022/08/13 11:31:26;;;;;;;;;;;40.40;28.70;;;;;;5007889;28;19961;-71
2022/08/13 11:33:51;;;;;;;;;;;40.10;29.40;;;;;;5009064;28;19992;-70
2022/08/13 11:36:17;;;;;;;;;;;39.80;28.40;;;;;;5010440;28;20210;-70
2022/08/13 11:38:42;;;;;;;;;;;39.20;26.60;;;;;;4996129;28;20015;-70
2022/08/13 11:41:08;;;;;;;;;;;38.70;27.70;;;;;;5007494;28;20019;-70
2022/08/13 11:43:33;;;;;;;;;;;38.00;26.70;;;;;;5007758;28;20296;-70
2022/08/13 11:45:59;;;;;;;;;;;37.80;28.40;;;;;;5004389;28;19925;-70
2022/08/13 11:48:25;;;;;;;;;;;37.60;27.50;;;;;;5012829;28;20506;-70
2022/08/13 11:50:51;;;;;;;;;;;37.20;28.20;;;;;;5012156;28;19913;-71
2022/08/13 11:53:17;;;;;;;;;;;37.10;27.30;;;;;;5013608;28;19916;-70
2022/08/13 11:55:43;;;;;;;;;;;37.00;28.40;;;;;;5010517;28;19916;-71
2022/08/13 11:58:08;;;;;;;;;;;36.90;27.80;;;;;;5017535;28;20371;-70
2022/08/13 12:00:35;;;;;;;;;;;36.80;30.20;;;;;;5010766;28;19935;-70
2022/08/13 12:03:01;;;;;;;;;;;36.70;28.70;;;;;;5010799;28;20400;-70
2022/08/13 12:05:26;;;;;;;;;;;36.60;28.40;;;;;;5001212;28;19925;-70
2022/08/13 12:07:52;;;;;;;;;;;36.50;28.40;;;;;;5004758;28;20407;-70
2022/08/13 12:10:18;;;;;;;;;;;36.50;28.90;;;;;;5007298;28;19913;-70
2022/08/13 12:12:44;;;;;;;;;;;36.20;28.90;;;;;;4994040;28;19978;-71
2022/08/13 12:15:09;;;;;;;;;;;36.40;29.00;;;;;;5012179;28;19920;-70
2022/08/13 12:17:35;;;;;;;;;;;36.20;29.60;;;;;;5015997;28;19913;-71
2022/08/13 12:20:01;;;;;;;;;;;36.20;29.80;;;;;;5020287;28;19967;-71
2022/08/13 12:22:26;;;;;;;;;;;36.10;30.20;;;;;;5021713;28;20226;-71
2022/08/13 12:24:52;;;;;;;;;;;36.30;29.50;;;;;;5020373;28;19921;-72
2022/08/13 12:27:18;;;;;;;;;;;36.40;28.50;;;;;;5014615;28;19912;-72
2022/08/13 12:29:43;;;;;;;;;;;36.30;29.30;;;;;;5013920;28;20273;-72
2022/08/13 12:32:09;;;;;;;;;;;36.30;29.80;;;;;;5014322;28;19913;-72
2022/08/13 12:34:36;;;;;;;;;;;36.00;27.90;;;;;;5018301;28;20038;-72
2022/08/13 12:37:02;;;;;;;;;;;35.90;28.40;;;;;;4665099;28;9999589;-71
2022/08/13 12:39:27;;;;;;;;;;;35.80;28.90;;;;;;5008218;28;19913;-71
2022/08/13 12:41:53;;;;;;;;;;;35.70;29.30;;;;;;5018997;28;19940;-72
2022/08/13 12:44:18;;;;;;;;;;;35.80;29.60;;;;;;5023971;28;19956;-72
2022/08/13 12:46:45;;;;;;;;;;;36.00;28.40;;;;;;5030838;28;20390;-71
2022/08/13 12:49:10;;;;;;;;;;;36.00;29.50;;;;;;5025497;28;20359;-72
2022/08/13 12:51:36;;;;;;;;;;;36.10;29.60;;;;;;5030036;28;19924;-72
2022/08/13 12:54:02;;;;;;;;;;;36.00;30.30;;;;;;5022325;28;19912;-71
2022/08/13 12:56:28;;;;;;;;;;;35.90;30.80;;;;;;5005224;28;20321;-70
2022/08/13 12:58:53;;;;;;;;;;;35.90;29.20;;;;;;5028258;28;19919;-72
2022/08/13 13:01:19;;;;;;;;;;;35.80;28.70;;;;;;5028764;28;19913;-72
2022/08/13 13:03:45;;;;;;;;;;;35.70;28.60;;;;;;5024523;28;20441;-72
2022/08/13 13:06:10;;;;;;;;;;;35.80;28.90;;;;;;5027403;28;20034;-71
2022/08/13 13:08:36;;;;;;;;;;;35.80;30.30;;;;;;5027875;28;19913;-72
2022/08/13 13:11:09;;;;;;;;;;;35.80;30.00;;;;;;5021757;28;20086;-72
2022/08/13 13:13:35;;;;;;;;;;;35.90;29.10;;;;;;5014038;28;19919;-71
2022/08/13 13:16:02;;;;;;;;;;;35.70;28.80;;;;;;5011143;28;20253;-71
2022/08/13 13:18:30;;;;;;;;;;;35.60;28.70;;;;;;5010574;28;19974;-72
2022/08/13 13:20:56;;;;;;;;;;;35.40;30.00;;;;;;5005473;28;19913;-72
2022/08/13 13:23:23;;;;;;;;;;;35.40;29.60;;;;;;4981854;28;20027;-72
2022/08/13 13:25:49;;;;;;;;;;;35.20;28.50;;;;;;5014567;28;19921;-72
2022/08/13 13:28:20;;;;;;;;;;;35.10;29.60;;;;;;5018306;28;20286;-72
2022/08/13 13:30:46;;;;;;;;;;;35.10;29.50;;;;;;5027158;28;19913;-72
2022/08/13 13:33:12;;;;;;;;;;;35.10;28.90;;;;;;5019902;28;20387;-71
2022/08/13 13:35:40;;;;;;;;;;;35.20;28.40;;;;;;5022071;28;19927;-71
2022/08/13 13:38:06;;;;;;;;;;;35.30;28.30;;;;;;5023942;28;20397;-72
2022/08/13 13:40:34;;;;;;;;;;;35.10;27.20;;;;;;5030124;28;20395;-72
2022/08/13 13:42:59;;;;;;;;;;;35.10;27.40;;;;;;5024117;28;19913;-72
2022/08/13 13:45:27;;;;;;;;;;;34.90;28.30;;;;;;5020002;28;19979;-72
2022/08/13 13:47:55;;;;;;;;;;;34.90;28.70;;;;;;5012075;28;20308;-72
2022/08/13 13:50:22;;;;;;;;;;;34.70;27.80;;;;;;5020072;28;19912;-72
2022/08/13 13:52:48;;;;;;;;;;;34.80;28.80;;;;;;5028162;28;19924;-72
2022/08/13 13:55:14;;;;;;;;;;;34.60;28.40;;;;;;5022412;28;19920;-72
2022/08/13 13:57:42;;;;;;;;;;;34.40;28.60;;;;;;5028230;28;19924;-72
2022/08/13 14:00:12;;;;;;;;;;;34.60;27.40;;;;;;5011202;28;20331;-72
2022/08/13 14:02:48;;;;;;;;;;;34.40;27.90;;;;;;5008138;28;19913;-72
2022/08/13 14:05:14;;;;;;;;;;;34.20;28.40;;;;;;5007865;28;19921;-72
2022/08/13 14:07:47;;;;;;;;;;;34.00;29.00;;;;;;5015105;28;19920;-72
2022/08/13 14:10:13;;;;;;;;;;;34.20;27.40;;;;;;5012220;28;20011;-72
2022/08/13 14:12:40;;;;;;;;;;;34.00;27.00;;;;;;5015456;28;19917;-72
2022/08/13 14:15:06;;;;;;;;;;;34.10;27.30;;;;;;5010799;28;19913;-72
2022/08/13 14:17:32;;;;;;;;;;;34.10;28.20;;;;;;5010850;28;19916;-72
2022/08/13 14:19:58;;;;;;;;;;;33.90;28.00;;;;;;5013732;28;19913;-72
2022/08/13 14:22:24;;;;;;;;;;;33.80;28.90;;;;;;5016426;28;20415;-72
2022/08/13 14:24:50;;;;;;;;;;;33.80;28.40;;;;;;5012427;28;20054;-71
2022/08/13 14:27:17;;;;;;;;;;;33.80;29.50;;;;;;5009111;28;20668;-72
2022/08/13 14:29:43;;;;;;;;;;;33.80;27.60;;;;;;5016642;28;19909;-72
2022/08/13 14:32:09;;;;;;;;;;;33.80;28.30;;;;;;5030287;28;19924;-71
2022/08/13 14:34:35;;;;;;;;;;;33.70;28.10;;;;;;5015938;28;19913;-72